Malone, Kentucky
Current Conditions -  °F | °C
As of 5:53 PM on Tuesday 27 Jan 2015 (Local Time) from KJKL Reporting Station
Clear Clear  
Wind Chill: 23°   Ceiling: Unl
Heat Index: 29°   Visibility: 10mi
Dew Point:   Wind: 6mph
Humidity: 36%   Direction: NA
Pressure: 30.06"   Gusts: NA
Location:  37.87°N, 83.26°W
Report Text: KJKL 272253Z AUTO VRB05KT 10SM CLR M02/M15 A3006 RMK AO2 SLP192 T10171150
Loading
Personal Weather Stations






























Interactive Weather Map New forecast layout! Learn more

10-Day Weather Forecast

Advertisements
Track Severe Weather on mobile